createdAt,value
2022-10-05T00:01:35.532Z,9.58
2022-10-05T00:04:33.710Z,9.63
2022-10-05T00:07:17.755Z,9.62
2022-10-05T00:09:52.985Z,9.59
2022-10-05T00:12:27.528Z,9.58
2022-10-05T00:15:03.421Z,9.56
2022-10-05T00:17:33.681Z,9.60
2022-10-05T00:20:01.358Z,9.59
2022-10-05T00:22:34.999Z,9.55
2022-10-05T00:25:17.728Z,9.60
2022-10-05T00:27:57.530Z,9.60
2022-10-05T00:30:33.367Z,9.58
2022-10-05T00:33:01.163Z,9.58
2022-10-05T00:35:37.129Z,9.57
2022-10-05T00:38:06.441Z,9.58
2022-10-05T00:40:57.814Z,9.57
2022-10-05T00:44:04.005Z,9.58
2022-10-05T00:46:44.099Z,9.56
2022-10-05T00:49:37.154Z,9.55
2022-10-05T00:52:24.157Z,9.48
2022-10-05T00:54:59.865Z,9.43
2022-10-05T00:57:51.404Z,9.53
2022-10-05T01:00:25.604Z,9.48
2022-10-05T01:03:31.955Z,9.49
2022-10-05T01:06:32.018Z,9.50
2022-10-05T01:09:14.641Z,9.49
2022-10-05T01:11:58.374Z,9.43
2022-10-05T01:14:54.440Z,9.43
2022-10-05T01:17:34.149Z,9.38
2022-10-05T01:20:23.016Z,9.46
2022-10-05T01:23:29.470Z,9.41
2022-10-05T01:26:09.058Z,9.44
2022-10-05T01:28:51.025Z,9.41
2022-10-05T01:31:36.107Z,9.42
2022-10-05T01:34:20.604Z,9.42
2022-10-05T01:37:08.124Z,9.42
2022-10-05T01:40:13.653Z,9.42
2022-10-05T01:43:04.114Z,9.41
2022-10-05T01:46:05.483Z,9.36
2022-10-05T01:48:54.089Z,9.37
2022-10-05T01:51:56.035Z,9.36
2022-10-05T01:54:27.439Z,9.36
2022-10-05T01:57:22.231Z,9.36
2022-10-05T02:00:11.541Z,9.32
2022-10-05T02:03:00.568Z,9.35
2022-10-05T02:05:48.859Z,9.33
2022-10-05T02:08:35.326Z,9.35
2022-10-05T02:11:27.311Z,9.37
2022-10-05T02:14:38.185Z,9.36
2022-10-05T02:17:32.401Z,9.33
2022-10-05T02:20:08.555Z,9.27
2022-10-05T02:22:56.433Z,9.37
2022-10-05T02:25:39.714Z,9.33
2022-10-05T02:28:52.312Z,9.37
2022-10-05T02:31:47.559Z,9.34
2022-10-05T02:34:43.800Z,9.37
2022-10-05T02:37:36.732Z,9.31
2022-10-05T02:40:17.626Z,9.36
2022-10-05T02:42:55.268Z,9.37
2022-10-05T02:45:52.509Z,9.37
2022-10-05T02:48:57.413Z,9.38
2022-10-05T02:51:45.952Z,9.35
2022-10-05T02:55:09.997Z,9.32
2022-10-05T02:58:00.396Z,9.35
2022-10-05T03:00:35.391Z,9.36
2022-10-05T03:03:20.017Z,9.33
2022-10-05T03:06:27.600Z,9.39
2022-10-05T03:09:09.561Z,9.35
2022-10-05T03:11:50.165Z,9.35
2022-10-05T03:14:57.672Z,9.39
2022-10-05T03:17:37.602Z,9.38
2022-10-05T03:20:54.037Z,9.36
2022-10-05T03:23:46.379Z,9.39
2022-10-05T03:26:41.914Z,9.38
2022-10-05T03:29:50.505Z,9.36
2022-10-05T03:32:21.689Z,9.37
2022-10-05T03:35:14.395Z,9.40
2022-10-05T03:38:32.196Z,9.41
2022-10-05T03:41:24.950Z,9.39
2022-10-05T03:44:14.327Z,9.39
2022-10-05T03:47:21.591Z,9.42
2022-10-05T03:50:15.279Z,9.42
2022-10-05T03:53:30.167Z,9.41
2022-10-05T03:56:27.339Z,9.38
2022-10-05T04:02:14.019Z,9.42
2022-10-05T04:05:19.009Z,9.44
2022-10-05T04:08:06.010Z,9.42
2022-10-05T04:10:48.357Z,9.42
2022-10-05T04:13:44.013Z,9.39
2022-10-05T04:16:14.174Z,9.41
2022-10-05T04:19:04.467Z,9.41
2022-10-05T04:25:15.993Z,9.42
2022-10-05T04:28:32.346Z,9.42
2022-10-05T04:31:10.192Z,9.43
2022-10-05T04:33:37.032Z,9.43
2022-10-05T04:36:31.942Z,9.45
2022-10-05T04:39:48.168Z,9.44
2022-10-05T04:42:37.854Z,9.47
2022-10-05T04:45:25.161Z,9.47
2022-10-05T04:48:11.257Z,9.45
2022-10-05T04:51:19.567Z,9.45
2022-10-05T04:53:53.332Z,9.45
2022-10-05T04:56:23.731Z,9.44
2022-10-05T04:59:32.845Z,9.42
2022-10-05T05:02:18.216Z,9.43
2022-10-05T05:05:08.608Z,9.44
2022-10-05T05:07:45.825Z,9.44
2022-10-05T05:10:29.761Z,9.44
2022-10-05T05:13:28.101Z,9.45
2022-10-05T05:16:23.166Z,9.47
2022-10-05T05:19:18.341Z,9.45
2022-10-05T05:22:03.008Z,9.45
2022-10-05T05:24:35.738Z,9.45
2022-10-05T05:27:42.858Z,9.47
2022-10-05T05:30:18.668Z,9.45
2022-10-05T05:33:07.185Z,9.47
2022-10-05T05:36:06.492Z,9.47
2022-10-05T05:39:05.467Z,9.50
2022-10-05T05:42:01.789Z,9.47
2022-10-05T05:44:42.751Z,9.49
2022-10-05T05:47:24.279Z,9.48
2022-10-05T05:50:07.268Z,9.49
2022-10-05T05:52:49.597Z,9.51
2022-10-05T05:55:30.193Z,9.51
2022-10-05T05:58:04.013Z,9.52
2022-10-05T06:00:37.673Z,9.51
2022-10-05T06:03:13.184Z,9.52
2022-10-05T06:05:49.817Z,9.52
2022-10-05T06:08:24.992Z,9.50
2022-10-05T06:11:05.728Z,9.48
2022-10-05T06:13:40.215Z,9.50
2022-10-05T06:16:18.789Z,9.51
2022-10-05T06:18:52.058Z,9.51
2022-10-05T06:21:27.709Z,9.52
2022-10-05T06:24:05.081Z,9.52
2022-10-05T06:27:27.283Z,9.53
2022-10-05T06:30:05.245Z,9.52
2022-10-05T06:32:52.465Z,9.53
2022-10-05T06:35:27.785Z,9.54
2022-10-05T06:38:07.852Z,9.55
2022-10-05T06:40:59.600Z,9.55
2022-10-05T06:43:48.203Z,9.56
2022-10-05T06:46:59.503Z,9.57
2022-10-05T06:49:35.517Z,9.57
2022-10-05T06:52:10.886Z,9.58
2022-10-05T06:54:56.416Z,9.60
2022-10-05T06:57:38.619Z,9.61
2022-10-05T07:00:17.423Z,9.61
2022-10-05T07:02:53.780Z,9.63
2022-10-05T07:05:45.255Z,9.65
2022-10-05T07:08:20.400Z,9.65
2022-10-05T07:10:47.251Z,9.64
2022-10-05T07:13:48.858Z,9.70
2022-10-05T07:16:33.697Z,9.69
2022-10-05T07:19:22.081Z,9.71
2022-10-05T07:22:13.978Z,9.70
2022-10-05T07:24:59.498Z,9.73
2022-10-05T07:27:32.293Z,9.75
2022-10-05T07:30:01.474Z,9.75
2022-10-05T07:32:36.734Z,9.77
2022-10-05T07:35:36.754Z,9.80
2022-10-05T07:38:32.691Z,9.82
2022-10-05T07:41:07.381Z,9.84
2022-10-05T07:44:03.776Z,9.85
2022-10-05T07:46:49.405Z,9.87
2022-10-05T07:49:45.436Z,9.89
2022-10-05T07:52:31.067Z,9.90
2022-10-05T07:55:19.330Z,9.92
2022-10-05T07:58:21.120Z,9.96
2022-10-05T08:01:02.358Z,9.98
2022-10-05T08:03:39.831Z,10.00
2022-10-05T08:06:11.688Z,10.01
2022-10-05T08:08:51.598Z,10.04
2022-10-05T08:11:25.890Z,10.06
2022-10-05T08:14:24.880Z,10.10
2022-10-05T08:16:55.791Z,10.11
2022-10-05T08:19:32.170Z,10.16
2022-10-05T08:22:06.274Z,10.19
2022-10-05T08:24:52.385Z,10.23
2022-10-05T08:27:27.782Z,10.26
2022-10-05T08:30:04.571Z,10.29
2022-10-05T08:32:43.807Z,10.33
2022-10-05T08:35:31.030Z,10.36
2022-10-05T08:37:58.150Z,10.39
2022-10-05T08:40:27.979Z,10.41
2022-10-05T08:42:57.807Z,10.45
2022-10-05T08:45:30.560Z,10.47
2022-10-05T08:48:25.880Z,10.49
2022-10-05T08:51:33.439Z,10.54
2022-10-05T08:54:06.454Z,10.58
2022-10-05T08:57:01.312Z,10.63
2022-10-05T08:59:58.841Z,10.65
2022-10-05T09:02:55.738Z,10.70
2022-10-05T09:05:28.611Z,10.74
2022-10-05T09:08:14.003Z,10.76
2022-10-05T09:10:59.310Z,10.83
2022-10-05T09:13:56.810Z,10.87
2022-10-05T09:16:48.095Z,10.91
2022-10-05T09:19:30.078Z,10.96
2022-10-05T09:22:35.188Z,11.02
2022-10-05T09:25:42.761Z,11.06
2022-10-05T09:28:36.573Z,11.11
2022-10-05T09:31:22.543Z,11.17
2022-10-05T09:34:37.193Z,11.23
2022-10-05T09:37:33.543Z,11.28
2022-10-05T09:40:33.038Z,11.35
2022-10-05T09:43:11.958Z,11.39
2022-10-05T09:46:03.663Z,11.44
2022-10-05T09:48:30.388Z,11.48
2022-10-05T09:51:15.386Z,11.53
2022-10-05T09:54:03.506Z,11.60
2022-10-05T09:56:44.014Z,11.62
2022-10-05T09:59:44.911Z,11.67
2022-10-05T10:02:43.969Z,11.72
2022-10-05T10:05:39.369Z,11.77
2022-10-05T10:08:15.427Z,11.81
2022-10-05T10:11:08.457Z,11.86
2022-10-05T10:13:55.780Z,11.91
2022-10-05T10:16:43.978Z,11.95
2022-10-05T10:19:47.918Z,12.00
2022-10-05T10:22:17.662Z,12.05
2022-10-05T10:25:19.247Z,12.10
2022-10-05T10:28:13.320Z,12.17
2022-10-05T10:30:51.908Z,12.25
2022-10-05T10:33:49.764Z,12.33
2022-10-05T10:36:28.567Z,12.38
2022-10-05T10:39:10.212Z,12.44
2022-10-05T10:41:46.000Z,12.49
2022-10-05T10:44:37.509Z,12.56
2022-10-05T10:47:47.279Z,12.59
2022-10-05T10:50:40.681Z,12.64
2022-10-05T10:53:29.749Z,12.71
2022-10-05T10:56:20.724Z,12.77
2022-10-05T10:59:08.766Z,12.83
2022-10-05T11:01:51.142Z,12.90
2022-10-05T11:04:40.173Z,12.96
2022-10-05T11:07:19.074Z,13.01
2022-10-05T11:09:51.808Z,13.07
2022-10-05T11:13:03.701Z,13.12
2022-10-05T11:15:30.511Z,13.22
2022-10-05T11:18:35.989Z,13.27
2022-10-05T11:21:21.642Z,13.36
2022-10-05T11:24:16.078Z,13.42
2022-10-05T11:27:26.995Z,13.50
2022-10-05T11:30:03.350Z,13.56
2022-10-05T11:33:11.342Z,13.65
2022-10-05T11:35:44.298Z,13.70
2022-10-05T11:38:57.063Z,13.75
2022-10-05T11:42:05.142Z,13.84
2022-10-05T11:45:15.851Z,13.88
2022-10-05T11:48:00.427Z,13.94
2022-10-05T11:51:08.678Z,14.00
2022-10-05T11:53:53.172Z,14.02
2022-10-05T11:56:42.299Z,14.06
2022-10-05T11:59:19.604Z,14.11
2022-10-05T12:02:24.049Z,14.14
2022-10-05T12:05:11.215Z,14.18
2022-10-05T12:07:46.846Z,14.21
2022-10-05T12:10:27.665Z,14.24
2022-10-05T12:13:19.448Z,14.29
2022-10-05T12:15:52.800Z,14.30
2022-10-05T12:18:25.697Z,14.33
2022-10-05T12:21:04.627Z,14.37
2022-10-05T12:23:43.215Z,14.40
2022-10-05T12:26:27.720Z,14.44
2022-10-05T12:29:02.073Z,14.49
2022-10-05T12:31:45.963Z,14.53
2022-10-05T12:34:12.941Z,14.57
2022-10-05T12:37:03.628Z,14.60
2022-10-05T12:39:54.532Z,14.65
2022-10-05T12:42:51.821Z,14.70
2022-10-05T12:46:03.837Z,14.73
2022-10-05T12:48:49.195Z,14.79
2022-10-05T12:51:28.191Z,14.81
2022-10-05T12:54:03.309Z,14.89
2022-10-05T12:56:47.749Z,14.91
2022-10-05T12:59:20.684Z,14.98
2022-10-05T13:01:52.301Z,15.01
2022-10-05T13:04:43.550Z,15.06
2022-10-05T13:07:48.712Z,15.12
2022-10-05T13:10:24.747Z,15.15
2022-10-05T13:13:07.403Z,15.19
2022-10-05T13:16:00.198Z,15.23
2022-10-05T13:18:40.971Z,15.27
2022-10-05T13:21:21.928Z,15.33
2022-10-05T13:24:00.453Z,15.36
2022-10-05T13:26:37.151Z,15.39
2022-10-05T13:29:25.953Z,15.42
2022-10-05T13:32:00.223Z,15.46
2022-10-05T13:34:37.232Z,15.49
2022-10-05T13:37:20.054Z,15.53
2022-10-05T13:39:59.549Z,15.55
2022-10-05T13:42:41.742Z,15.59
2022-10-05T13:45:24.614Z,15.61
2022-10-05T13:48:06.818Z,15.66
2022-10-05T13:50:42.811Z,15.69
2022-10-05T13:53:18.544Z,15.73
2022-10-05T13:55:47.682Z,15.76
2022-10-05T13:58:54.252Z,15.78
2022-10-05T14:01:34.807Z,15.81
2022-10-05T14:04:20.609Z,15.83
2022-10-05T14:06:48.787Z,15.83
2022-10-05T14:09:25.480Z,15.90
2022-10-05T14:12:12.429Z,15.92
2022-10-05T14:14:51.190Z,15.96
2022-10-05T14:17:33.383Z,15.97
2022-10-05T14:20:13.827Z,15.99
2022-10-05T14:22:42.132Z,15.99
2022-10-05T14:25:09.174Z,16.03
2022-10-05T14:27:50.704Z,16.01
2022-10-05T14:30:24.330Z,16.05
2022-10-05T14:32:56.373Z,16.08
2022-10-05T14:35:25.848Z,16.12
2022-10-05T14:38:00.694Z,16.13
2022-10-05T14:40:37.972Z,16.15
2022-10-05T14:43:31.259Z,16.18
2022-10-05T14:46:14.754Z,16.21
2022-10-05T14:48:44.090Z,16.22
2022-10-05T14:51:24.053Z,16.24
2022-10-05T14:54:02.043Z,16.28
2022-10-05T14:57:04.507Z,16.29
2022-10-05T14:59:43.457Z,16.29
2022-10-05T15:02:33.717Z,16.31
2022-10-05T15:05:15.323Z,16.32
2022-10-05T15:07:57.235Z,16.33
2022-10-05T15:10:40.567Z,16.33
2022-10-05T15:13:11.843Z,16.35
2022-10-05T15:15:44.749Z,16.35
2022-10-05T15:18:42.262Z,16.34
2022-10-05T15:21:24.084Z,16.36
2022-10-05T15:24:00.211Z,16.37
2022-10-05T15:26:45.866Z,16.38
2022-10-05T15:29:47.330Z,16.37
2022-10-05T15:32:21.896Z,16.40
2022-10-05T15:35:29.621Z,16.40
2022-10-05T15:37:59.812Z,16.38
2022-10-05T15:40:39.741Z,16.42
2022-10-05T15:43:14.009Z,16.36
2022-10-05T15:45:54.687Z,16.42
2022-10-05T15:48:29.129Z,16.42
2022-10-05T15:51:30.083Z,16.44
2022-10-05T15:54:19.883Z,16.43
2022-10-05T15:57:16.315Z,16.42
2022-10-05T16:00:11.489Z,16.43
2022-10-05T16:02:46.177Z,16.42
2022-10-05T16:05:56.683Z,16.42
2022-10-05T16:09:01.941Z,16.40
2022-10-05T16:11:52.684Z,16.39
2022-10-05T16:14:28.476Z,16.38
2022-10-05T16:17:05.112Z,16.31
2022-10-05T16:19:45.495Z,16.37
2022-10-05T16:22:28.227Z,16.37
2022-10-05T16:25:18.382Z,16.35
2022-10-05T16:28:05.641Z,16.33
2022-10-05T16:30:55.207Z,16.30
2022-10-05T16:33:29.238Z,16.26
2022-10-05T16:36:31.845Z,16.25
2022-10-05T16:39:11.692Z,16.24
2022-10-05T16:42:27.729Z,16.22
2022-10-05T16:45:06.857Z,16.20
2022-10-05T16:47:46.952Z,16.15
2022-10-05T16:50:16.729Z,16.17
2022-10-05T16:52:48.085Z,16.10
2022-10-05T16:55:26.911Z,16.13
2022-10-05T16:57:56.989Z,16.10
2022-10-05T17:00:24.998Z,16.08
2022-10-05T17:03:01.831Z,16.04
2022-10-05T17:06:00.982Z,16.04
2022-10-05T17:09:05.682Z,16.02
2022-10-05T17:12:10.070Z,15.99
2022-10-05T17:15:03.141Z,15.97
2022-10-05T17:17:49.023Z,15.94
2022-10-05T17:20:18.909Z,15.92
2022-10-05T17:22:50.766Z,15.90
2022-10-05T17:25:45.133Z,15.88
2022-10-05T17:28:20.038Z,15.81
2022-10-05T17:30:58.800Z,15.76
2022-10-05T17:33:33.461Z,15.73
2022-10-05T17:36:04.700Z,15.70
2022-10-05T17:38:31.650Z,15.66
2022-10-05T17:41:24.568Z,15.63
2022-10-05T17:44:10.284Z,15.60
2022-10-05T17:46:39.982Z,15.55
2022-10-05T17:50:08.177Z,15.51
2022-10-05T17:52:55.323Z,15.48
2022-10-05T17:55:34.017Z,15.45
2022-10-05T17:58:24.197Z,15.44
2022-10-05T18:00:57.177Z,15.40
2022-10-05T18:03:51.552Z,15.38
2022-10-05T18:06:21.393Z,15.35
2022-10-05T18:08:48.365Z,15.31
2022-10-05T18:11:36.746Z,15.32
2022-10-05T18:14:50.062Z,15.33
2022-10-05T18:17:42.114Z,15.31
2022-10-05T18:20:23.943Z,15.31
2022-10-05T18:22:53.658Z,15.30
2022-10-05T18:25:52.397Z,15.29
2022-10-05T18:28:24.197Z,15.27
2022-10-05T18:31:12.440Z,15.26
2022-10-05T18:33:39.341Z,15.23
2022-10-05T18:36:27.151Z,15.22
2022-10-05T18:39:23.202Z,15.21
2022-10-05T18:42:08.363Z,15.17
2022-10-05T18:44:51.994Z,15.15
2022-10-05T18:47:30.591Z,15.11
2022-10-05T18:50:12.868Z,15.12
2022-10-05T18:53:07.561Z,15.07
2022-10-05T18:56:08.476Z,15.05
2022-10-05T18:59:02.849Z,15.03
2022-10-05T19:01:56.686Z,15.00
2022-10-05T19:04:32.477Z,14.98
2022-10-05T19:07:30.238Z,14.96
2022-10-05T19:10:09.182Z,14.92
2022-10-05T19:12:53.755Z,14.87
2022-10-05T19:15:50.299Z,14.87
2022-10-05T19:18:40.081Z,14.82
2022-10-05T19:21:28.503Z,14.80
2022-10-05T19:24:05.996Z,14.77
2022-10-05T19:26:57.301Z,14.75
2022-10-05T19:29:54.423Z,14.71
2022-10-05T19:32:33.513Z,14.70
2022-10-05T19:35:22.170Z,14.70
2022-10-05T19:37:55.082Z,14.69
2022-10-05T19:40:49.741Z,14.68
2022-10-05T19:43:38.243Z,14.66
2022-10-05T19:46:25.285Z,14.65
2022-10-05T19:48:53.925Z,14.66
2022-10-05T19:51:25.376Z,14.67
2022-10-05T19:53:56.001Z,14.65
2022-10-05T19:56:30.925Z,14.66
2022-10-05T19:59:10.461Z,14.66
2022-10-05T20:01:48.092Z,14.65
2022-10-05T20:04:16.343Z,14.64
2022-10-05T20:06:43.321Z,14.65
2022-10-05T20:09:21.600Z,14.65
2022-10-05T20:11:50.930Z,14.65
2022-10-05T20:14:32.570Z,14.64
2022-10-05T20:17:36.105Z,14.63
2022-10-05T20:20:47.092Z,14.64
2022-10-05T20:23:21.012Z,14.61
2022-10-05T20:26:08.277Z,14.59
2022-10-05T20:28:35.200Z,14.58
2022-10-05T20:31:10.090Z,14.55
2022-10-05T20:33:46.781Z,14.57
2022-10-05T20:36:19.600Z,14.57
2022-10-05T20:38:55.528Z,14.54
2022-10-05T20:41:22.390Z,14.57
2022-10-05T20:43:52.264Z,14.58
2022-10-05T20:46:19.817Z,14.60
2022-10-05T20:48:46.734Z,14.59
2022-10-05T20:51:21.921Z,14.60
2022-10-05T20:53:50.649Z,14.60
2022-10-05T20:56:22.492Z,14.60
2022-10-05T20:58:50.510Z,14.53
2022-10-05T21:01:34.195Z,14.58
2022-10-05T21:04:02.888Z,14.57
2022-10-05T21:06:30.162Z,14.55
2022-10-05T21:09:03.046Z,14.59
2022-10-05T21:11:43.669Z,14.60
2022-10-05T21:14:11.751Z,14.60
2022-10-05T21:16:45.202Z,14.59
2022-10-05T21:19:14.996Z,14.61
2022-10-05T21:21:48.102Z,14.61
2022-10-05T21:24:15.670Z,14.61
2022-10-05T21:26:44.173Z,14.62
2022-10-05T21:29:29.924Z,14.61
2022-10-05T21:32:04.523Z,14.59
2022-10-05T21:34:43.065Z,14.62
2022-10-05T21:37:10.137Z,14.63
2022-10-05T21:39:40.095Z,14.59
2022-10-05T21:42:06.961Z,14.61
2022-10-05T21:44:37.590Z,14.62
2022-10-05T21:47:15.518Z,14.64
2022-10-05T21:49:42.730Z,14.62
2022-10-05T21:52:09.694Z,14.60
2022-10-05T21:54:39.606Z,14.58
2022-10-05T21:57:09.478Z,14.58
2022-10-05T21:59:36.507Z,14.56
2022-10-05T22:02:03.558Z,14.57
2022-10-05T22:04:34.716Z,14.56
2022-10-05T22:07:04.055Z,14.54
2022-10-05T22:09:33.886Z,14.53
2022-10-05T22:12:03.737Z,14.50
2022-10-05T22:14:33.615Z,14.47
2022-10-05T22:17:00.733Z,14.48
2022-10-05T22:19:27.688Z,14.40
2022-10-05T22:21:54.948Z,14.39
2022-10-05T22:24:50.599Z,14.43
2022-10-05T22:27:09.999Z,14.42
2022-10-05T22:29:37.121Z,14.41
2022-10-05T22:32:04.231Z,14.40
2022-10-05T22:34:31.374Z,14.39
2022-10-05T22:36:59.429Z,14.36
2022-10-05T22:39:26.228Z,14.36
2022-10-05T22:41:53.328Z,14.33
2022-10-05T22:44:20.636Z,14.33
2022-10-05T22:46:47.607Z,14.32
2022-10-05T22:49:14.610Z,14.29
2022-10-05T22:51:41.613Z,14.25
2022-10-05T22:54:08.584Z,14.24
2022-10-05T22:56:35.457Z,14.22
2022-10-05T22:59:02.274Z,14.19
2022-10-05T23:01:29.263Z,14.17
2022-10-05T23:03:57.258Z,14.13
2022-10-05T23:06:26.626Z,14.09
2022-10-05T23:08:54.760Z,14.04
2022-10-05T23:11:26.820Z,14.00
2022-10-05T23:13:56.772Z,13.97
2022-10-05T23:16:26.672Z,13.92
2022-10-05T23:18:54.924Z,13.89
2022-10-05T23:21:23.914Z,13.82
2022-10-05T23:23:51.324Z,13.76
2022-10-05T23:26:21.239Z,13.66
2022-10-05T23:28:49.020Z,13.61
2022-10-05T23:31:19.165Z,13.56
2022-10-05T23:33:46.716Z,13.50
2022-10-05T23:36:16.801Z,13.45
2022-10-05T23:38:44.101Z,13.42
2022-10-05T23:41:13.156Z,13.35
2022-10-05T23:43:40.195Z,13.29
2022-10-05T23:46:08.473Z,13.25
2022-10-05T23:48:38.063Z,13.20
2022-10-05T23:51:13.103Z,13.14
2022-10-05T23:53:40.139Z,13.10
2022-10-05T23:56:07.421Z,13.04
2022-10-05T23:58:34.241Z,13.01
